Time;durP1;ratioP1;P1;durP2;ratioP2;P2;SDS_P1;SDS_P2;PMS_P1;PMS_P2;Temp;Humidity;BMP_temperature;BMP_pressure;BME280_temperature;BME280_humidity;BME280_pressure;Samples;Min_cycle;Max_cycle;Signal;HPM_P1;HPM_P2
2021/03/20 00:00:40;;;;;;;3.50;2.47;;;8.10;71.70;;;;;;5061540;28;20028;-87
2021/03/20 00:03:06;;;;;;;3.03;2.35;;;8.00;72.30;;;;;;5067223;28;20105;-89
2021/03/20 00:05:32;;;;;;;2.80;2.50;;;8.00;71.70;;;;;;5044827;28;20444;-86
2021/03/20 00:07:59;;;;;;;3.45;2.67;;;8.00;71.70;;;;;;5059863;28;20041;-86
2021/03/20 00:10:26;;;;;;;3.58;2.90;;;8.00;71.80;;;;;;5063752;28;20087;-85
2021/03/20 00:12:53;;;;;;;3.72;2.50;;;8.00;71.80;;;;;;5056338;28;20037;-85
2021/03/20 00:15:25;;;;;;;3.47;2.50;;;8.00;71.80;;;;;;5062385;28;20120;-87
2021/03/20 00:17:51;;;;;;;4.18;2.72;;;7.90;71.80;;;;;;5040953;28;20037;-84
2021/03/20 00:20:31;;;;;;;3.90;2.97;;;7.90;71.80;;;;;;5058095;28;20075;-86
2021/03/20 00:22:57;;;;;;;4.22;2.90;;;7.90;71.90;;;;;;5052261;28;20639;-85
2021/03/20 00:25:24;;;;;;;4.10;2.70;;;7.90;71.80;;;;;;5068729;28;20020;-82
2021/03/20 00:27:50;;;;;;;3.92;2.85;;;7.80;71.80;;;;;;5054512;28;20036;-87
2021/03/20 00:30:17;;;;;;;3.75;3.00;;;7.80;71.80;;;;;;5052541;28;20029;-90
2021/03/20 00:32:43;;;;;;;3.50;2.55;;;7.80;71.80;;;;;;5054016;28;20036;-90
2021/03/20 00:35:09;;;;;;;3.75;2.90;;;7.80;71.90;;;;;;5068819;28;20052;-91
2021/03/20 00:37:36;;;;;;;3.50;2.60;;;7.80;71.90;;;;;;5051404;28;20048;-91
2021/03/20 00:40:04;;;;;;;3.78;3.00;;;7.70;71.90;;;;;;5074480;28;20040;-91
2021/03/20 00:42:30;;;;;;;3.85;2.90;;;7.70;71.90;;;;;;5051410;28;20457;-90
2021/03/20 00:44:55;;;;;;;4.00;2.97;;;7.70;71.90;;;;;;5068186;28;20028;-89
2021/03/20 00:47:21;;;;;;;3.80;2.83;;;7.70;72.60;;;;;;5049536;28;20036;-89
2021/03/20 00:49:47;;;;;;;3.67;3.10;;;7.60;71.90;;;;;;5066145;28;20164;-91
2021/03/20 00:52:13;;;;;;;4.68;2.90;;;7.60;72.00;;;;;;5054732;28;20032;-90
2021/03/20 00:54:39;;;;;;;3.45;2.80;;;7.60;71.90;;;;;;5052105;28;20081;-90
2021/03/20 00:57:05;;;;;;;4.68;3.35;;;7.60;72.00;;;;;;5045349;28;20055;-89
2021/03/20 00:59:30;;;;;;;3.95;2.72;;;7.60;72.00;;;;;;5068226;28;20124;-90
2021/03/20 01:01:56;;;;;;;3.08;2.63;;;7.60;72.00;;;;;;5033042;28;20459;-90
2021/03/20 01:04:22;;;;;;;4.22;3.08;;;7.50;72.00;;;;;;5054749;28;20028;-88
2021/03/20 01:06:48;;;;;;;4.07;3.17;;;7.50;72.00;;;;;;5045992;28;20033;-90
2021/03/20 01:09:14;;;;;;;4.45;3.30;;;7.50;72.10;;;;;;5051992;28;20064;-89
2021/03/20 01:11:40;;;;;;;4.47;2.92;;;7.50;72.10;;;;;;4983340;28;20033;-90
2021/03/20 01:14:06;;;;;;;4.60;3.00;;;7.50;72.10;;;;;;5006466;28;20029;-89
2021/03/20 01:16:32;;;;;;;4.28;3.05;;;7.50;72.10;;;;;;5020043;28;20033;-89
2021/03/20 01:18:57;;;;;;;3.95;3.08;;;7.40;72.10;;;;;;5022960;28;20037;-89
2021/03/20 01:21:25;;;;;;;4.25;3.05;;;7.40;72.10;;;;;;5021722;28;20032;-89
2021/03/20 01:23:51;;;;;;;4.05;2.85;;;7.40;72.10;;;;;;5029116;28;20025;-90
2021/03/20 01:26:17;;;;;;;4.20;2.97;;;7.40;72.10;;;;;;5022429;28;20096;-89
2021/03/20 01:28:44;;;;;;;4.07;2.85;;;7.40;72.20;;;;;;5022359;28;20029;-88
2021/03/20 01:31:14;;;;;;;4.10;3.08;;;7.40;72.20;;;;;;5031788;28;20470;-88
2021/03/20 01:33:40;;;;;;;4.35;3.13;;;7.30;72.10;;;;;;5014088;28;20021;-89
2021/03/20 01:36:06;;;;;;;4.60;3.20;;;7.30;72.10;;;;;;5037867;28;20385;-88
2021/03/20 01:38:32;;;;;;;4.28;2.92;;;7.30;72.10;;;;;;5006606;28;20045;-89
2021/03/20 01:41:06;;;;;;;4.45;3.28;;;7.30;72.10;;;;;;5022634;28;20482;-89
2021/03/20 01:43:33;;;;;;;3.37;3.00;;;7.30;72.20;;;;;;5039096;28;20033;-89
2021/03/20 01:46:37;;;;;;;4.20;3.10;;;7.30;72.20;;;;;;5022021;28;20037;-89
2021/03/20 01:49:16;;;;;;;3.75;3.00;;;7.20;72.20;;;;;;5019410;28;20063;-88
2021/03/20 01:51:49;;;;;;;3.35;2.78;;;7.20;72.10;;;;;;5048626;28;20052;-89
2021/03/20 01:54:15;;;;;;;3.90;2.72;;;7.20;72.10;;;;;;5033547;28;20033;-90
2021/03/20 01:56:45;;;;;;;4.72;3.35;;;7.10;72.10;;;;;;5018958;28;20407;-90
2021/03/20 01:59:13;;;;;;;3.85;3.08;;;7.10;72.20;;;;;;5038531;28;20041;-89
2021/03/20 02:01:40;;;;;;;4.20;2.78;;;7.10;72.20;;;;;;5038745;28;20021;-89
2021/03/20 02:04:06;;;;;;;5.10;2.92;;;7.10;72.20;;;;;;5021883;28;20036;-89
2021/03/20 02:06:33;;;;;;;3.47;2.80;;;7.10;72.20;;;;;;5020846;28;20037;-89
2021/03/20 02:09:03;;;;;;;4.95;3.10;;;7.10;72.20;;;;;;4995858;28;20037;-89
2021/03/20 02:11:34;;;;;;;3.63;2.60;;;7.00;72.20;;;;;;5023654;28;20054;-90
2021/03/20 02:14:21;;;;;;;4.13;3.17;;;7.00;72.20;;;;;;5012537;28;20506;-90
2021/03/20 02:16:56;;;;;;;3.08;2.67;;;7.00;72.20;;;;;;5020679;28;20029;-89
2021/03/20 02:19:55;;;;;;;2.92;2.60;;;7.00;72.20;;;;;;5021989;28;20393;-89
2021/03/20 02:23:02;;;;;;;3.33;2.78;;;6.90;72.20;;;;;;5046742;28;20049;-90
2021/03/20 02:25:49;;;;;;;3.55;2.70;;;6.90;72.10;;;;;;5011208;28;20037;-90
2021/03/20 02:28:46;;;;;;;3.72;2.80;;;6.90;72.20;;;;;;5043133;28;20478;-89
2021/03/20 02:31:35;;;;;;;3.30;2.70;;;6.80;72.20;;;;;;5008762;28;20033;-90
2021/03/20 02:34:38;;;;;;;5.47;3.33;;;6.80;72.20;;;;;;5037062;28;20030;-89
2021/03/20 02:37:17;;;;;;;3.97;2.78;;;6.80;72.30;;;;;;5024457;28;20087;-89
2021/03/20 02:40:06;;;;;;;3.72;2.78;;;6.70;72.20;;;;;;5018272;28;20034;-89
2021/03/20 02:42:44;;;;;;;4.45;3.35;;;6.70;72.30;;;;;;5018236;28;20029;-89
2021/03/20 02:45:26;;;;;;;3.45;3.00;;;6.70;72.30;;;;;;5031620;28;20457;-88
2021/03/20 02:47:57;;;;;;;3.70;2.83;;;6.70;72.30;;;;;;5019423;28;20036;-89
2021/03/20 02:50:35;;;;;;;4.10;3.00;;;6.60;72.20;;;;;;5036912;28;20037;-89
2021/03/20 02:53:07;;;;;;;3.70;2.58;;;6.60;72.30;;;;;;5018103;28;20448;-89
2021/03/20 02:55:41;;;;;;;3.83;2.83;;;6.60;72.30;;;;;;5017798;28;20025;-89
2021/03/20 02:58:25;;;;;;;3.67;2.83;;;6.60;72.30;;;;;;5016878;28;20429;-89
2021/03/20 03:01:03;;;;;;;3.87;3.07;;;6.60;72.30;;;;;;5022959;28;20309;-89
2021/03/20 03:03:34;;;;;;;3.70;2.83;;;6.60;72.30;;;;;;5052753;28;20029;-89
2021/03/20 03:06:08;;;;;;;3.80;2.55;;;6.50;72.20;;;;;;5043102;28;20028;-89
2021/03/20 03:08:56;;;;;;;3.13;2.60;;;6.50;72.20;;;;;;5014790;28;20469;-90
2021/03/20 03:11:39;;;;;;;3.78;3.15;;;6.50;72.30;;;;;;5069400;28;20127;-89
2021/03/20 03:14:11;;;;;;;3.70;3.00;;;6.40;72.20;;;;;;5077610;28;20028;-89
2021/03/20 03:16:45;;;;;;;3.72;2.95;;;6.40;72.20;;;;;;5057031;28;20070;-89
2021/03/20 03:19:33;;;;;;;3.97;2.80;;;6.40;72.20;;;;;;5063695;28;20025;-88
2021/03/20 03:22:03;;;;;;;3.88;3.05;;;6.40;72.20;;;;;;5067013;28;20036;-89
2021/03/20 03:24:31;;;;;;;3.85;2.60;;;6.30;72.10;;;;;;5056215;28;20036;-90
2021/03/20 03:27:05;;;;;;;4.38;3.05;;;6.30;72.20;;;;;;5053482;28;20029;-89
2021/03/20 03:29:34;;;;;;;4.13;2.90;;;6.30;72.20;;;;;;5056665;28;20397;-89
2021/03/20 03:32:27;;;;;;;4.20;3.03;;;6.30;72.20;;;;;;5063472;28;20091;-89
2021/03/20 03:35:05;;;;;;;3.60;2.85;;;6.20;72.30;;;;;;5070003;28;20090;-89
2021/03/20 03:37:36;;;;;;;3.80;3.00;;;6.20;72.10;;;;;;5069760;28;20138;-89
2021/03/20 03:40:13;;;;;;;4.15;2.95;;;6.20;72.20;;;;;;5055685;28;20028;-90
2021/03/20 03:42:39;;;;;;;3.65;3.00;;;6.20;72.20;;;;;;5056350;28;20105;-90
2021/03/20 03:45:11;;;;;;;3.70;3.00;;;6.20;72.20;;;;;;5051206;28;20470;-89
2021/03/20 03:47:37;;;;;;;3.97;3.20;;;6.10;72.20;;;;;;5068838;28;20056;-90
2021/03/20 03:50:13;;;;;;;4.07;3.05;;;6.10;72.20;;;;;;5056359;28;20033;-90
2021/03/20 03:52:39;;;;;;;3.60;2.72;;;6.10;72.20;;;;;;5053421;28;20386;-90
2021/03/20 03:55:07;;;;;;;3.75;2.83;;;6.10;72.10;;;;;;5028466;28;20021;-90
2021/03/20 03:57:42;;;;;;;4.38;3.10;;;6.10;72.20;;;;;;5042490;28;20113;-90
2021/03/20 04:00:46;;;;;;;3.42;2.70;;;6.00;72.20;;;;;;5053836;28;20036;-90
2021/03/20 04:03:33;;;;;;;3.50;2.72;;;6.00;72.10;;;;;;4987298;28;20026;-89
2021/03/20 04:06:09;;;;;;;4.40;3.20;;;6.00;72.20;;;;;;5056549;28;20028;-89
2021/03/20 04:09:12;;;;;;;4.63;3.28;;;5.90;72.10;;;;;;5074105;28;20256;-90
2021/03/20 04:12:11;;;;;;;3.63;2.90;;;5.90;72.20;;;;;;5065741;28;20080;-90
2021/03/20 04:14:44;;;;;;;3.15;2.67;;;5.90;72.20;;;;;;5063824;28;20035;-89
2021/03/20 04:17:23;;;;;;;3.80;3.00;;;5.90;72.20;;;;;;5071618;28;20052;-90
2021/03/20 04:20:19;;;;;;;4.40;2.90;;;5.80;72.20;;;;;;5052666;28;20041;-89
2021/03/20 04:22:59;;;;;;;3.70;2.83;;;5.80;72.20;;;;;;5052886;28;20029;-89
2021/03/20 04:25:49;;;;;;;3.90;3.13;;;5.80;72.20;;;;;;5053745;28;20053;-89
2021/03/20 04:28:22;;;;;;;4.85;3.60;;;5.70;72.20;;;;;;5064140;28;20029;-89
2021/03/20 04:30:54;;;;;;;4.40;3.50;;;5.70;72.20;;;;;;5055511;28;20033;-89
2021/03/20 04:33:30;;;;;;;4.03;3.13;;;5.70;72.20;;;;;;5042766;28;20021;-89
2021/03/20 04:36:04;;;;;;;4.55;3.33;;;5.70;72.90;;;;;;5069464;28;20082;-89
2021/03/20 04:38:30;;;;;;;3.50;2.83;;;5.70;72.20;;;;;;5042755;28;20017;-89
2021/03/20 04:41:00;;;;;;;4.53;3.22;;;5.60;72.20;;;;;;5051858;28;20100;-89
2021/03/20 04:43:28;;;;;;;4.05;3.08;;;5.60;72.20;;;;;;5055502;28;20036;-89
2021/03/20 04:46:01;;;;;;;4.40;3.42;;;5.60;72.20;;;;;;5044383;28;20039;-89
2021/03/20 04:48:33;;;;;;;3.50;2.90;;;5.60;72.20;;;;;;5056568;28;20086;-89
2021/03/20 04:51:15;;;;;;;4.47;3.08;;;5.60;72.20;;;;;;5062021;28;20136;-89
2021/03/20 04:53:41;;;;;;;3.42;2.80;;;5.50;72.20;;;;;;5072810;28;20064;-90
2021/03/20 04:56:14;;;;;;;4.03;3.00;;;5.50;72.20;;;;;;5040342;28;20036;-90
2021/03/20 04:58:57;;;;;;;4.47;3.03;;;5.50;72.20;;;;;;5066732;28;20036;-89
2021/03/20 05:01:42;;;;;;;3.60;2.88;;;5.50;72.20;;;;;;5076309;28;20032;-89
2021/03/20 05:04:34;;;;;;;3.83;2.97;;;5.50;72.20;;;;;;5076375;28;20387;-89
2021/03/20 05:07:02;;;;;;;3.33;2.60;;;5.40;72.20;;;;;;5062308;28;20021;-89
2021/03/20 05:09:29;;;;;;;4.18;3.30;;;5.40;72.10;;;;;;5042637;28;20125;-88
2021/03/20 05:11:59;;;;;;;4.63;3.55;;;5.40;72.20;;;;;;5058583;28;20120;-90
2021/03/20 05:14:29;;;;;;;4.43;3.30;;;5.40;72.20;;;;;;5039597;28;20494;-88
2021/03/20 05:17:01;;;;;;;3.85;3.13;;;5.30;72.20;;;;;;5039433;28;20043;-88
2021/03/20 05:19:28;;;;;;;3.97;3.13;;;5.30;72.20;;;;;;5039197;28;20032;-88
2021/03/20 05:21:55;;;;;;;3.83;3.13;;;5.30;72.20;;;;;;5022712;28;20474;-89
2021/03/20 05:24:27;;;;;;;3.70;2.90;;;5.30;72.20;;;;;;5026723;28;20492;-89
2021/03/20 05:26:54;;;;;;;3.85;3.05;;;5.30;72.20;;;;;;5031664;28;20443;-90
2021/03/20 05:29:21;;;;;;;4.55;3.33;;;5.20;72.10;;;;;;5022334;28;20161;-90
2021/03/20 05:31:47;;;;;;;4.18;3.30;;;5.20;72.10;;;;;;5056567;28;20529;-90
2021/03/20 05:34:21;;;;;;;3.60;2.85;;;5.20;72.10;;;;;;5039407;28;20108;-89
2021/03/20 05:36:47;;;;;;;4.35;3.40;;;5.20;72.10;;;;;;5022507;28;20076;-89
2021/03/20 05:39:14;;;;;;;4.15;3.05;;;5.20;72.10;;;;;;5039596;28;20117;-89
2021/03/20 05:42:08;;;;;;;4.55;3.03;;;5.10;72.10;;;;;;5038511;28;20044;-90
2021/03/20 05:44:41;;;;;;;3.97;2.88;;;5.10;72.20;;;;;;5034830;28;20108;-89
2021/03/20 05:47:35;;;;;;;5.03;3.70;;;5.10;72.10;;;;;;5022231;28;20024;-89
2021/03/20 05:50:22;;;;;;;4.38;3.03;;;5.00;72.10;;;;;;5002255;28;20041;-90
2021/03/20 05:53:01;;;;;;;4.07;3.20;;;5.00;72.10;;;;;;5018179;28;20029;-90
2021/03/20 05:56:08;;;;;;;3.78;2.70;;;5.00;72.10;;;;;;5023849;28;20033;-89
2021/03/20 05:59:02;;;;;;;4.00;3.33;;;5.00;72.20;;;;;;5032587;28;20035;-90
2021/03/20 06:02:00;;;;;;;4.50;2.83;;;4.90;72.10;;;;;;5035734;28;20055;-90
2021/03/20 06:04:45;;;;;;;5.28;3.17;;;4.90;72.20;;;;;;5022553;28;20029;-88
2021/03/20 06:07:37;;;;;;;3.92;3.10;;;4.80;72.10;;;;;;5033262;28;20021;-91
2021/03/20 06:10:03;;;;;;;3.97;3.08;;;4.80;72.10;;;;;;5019411;28;20482;-90
2021/03/20 06:12:34;;;;;;;4.90;3.35;;;4.80;72.10;;;;;;5039067;28;20036;-90
2021/03/20 06:15:08;;;;;;;3.70;3.08;;;4.80;72.20;;;;;;5022061;28;20033;-89
2021/03/20 06:17:49;;;;;;;4.10;3.03;;;4.80;72.20;;;;;;5028544;28;20033;-89
2021/03/20 06:20:46;;;;;;;3.97;3.30;;;4.80;72.20;;;;;;5038276;28;20025;-90
2021/03/20 06:23:23;;;;;;;3.97;3.03;;;4.70;72.20;;;;;;5038178;28;20029;-90
2021/03/20 06:26:13;;;;;;;4.47;3.22;;;4.70;72.10;;;;;;5032326;28;20025;-90
2021/03/20 06:28:54;;;;;;;4.47;3.30;;;4.70;72.10;;;;;;5034728;28;20036;-90
2021/03/20 06:31:23;;;;;;;4.18;3.20;;;4.70;72.20;;;;;;5008526;28;20029;-90
2021/03/20 06:33:54;;;;;;;4.45;3.15;;;4.70;72.20;;;;;;5035778;28;20025;-90
2021/03/20 06:37:09;;;;;;;4.78;3.30;;;4.70;72.20;;;;;;5005384;28;20021;-90
2021/03/20 06:39:37;;;;;;;4.93;3.50;;;4.70;72.30;;;;;;4940877;29;20035;-90
2021/03/20 06:42:23;;;;;;;5.35;3.50;;;4.60;72.10;;;;;;5010005;28;20038;-90
2021/03/20 06:44:55;;;;;;;4.57;3.35;;;4.60;72.30;;;;;;5036105;28;20021;-89
2021/03/20 06:47:25;;;;;;;3.70;2.83;;;4.60;72.20;;;;;;5029255;28;20021;-91
2021/03/20 06:50:24;;;;;;;3.63;3.00;;;4.60;72.30;;;;;;5037277;28;20392;-89
2021/03/20 06:52:57;;;;;;;5.43;3.65;;;4.60;72.30;;;;;;5035725;28;20114;-90
2021/03/20 06:55:44;;;;;;;3.78;2.90;;;4.60;72.30;;;;;;5024189;28;20025;-91
2021/03/20 06:58:33;;;;;;;4.53;3.60;;;4.50;72.30;;;;;;5037903;28;20033;-90
2021/03/20 07:01:20;;;;;;;4.65;3.50;;;4.50;72.30;;;;;;5030636;28;20080;-90
2021/03/20 07:04:04;;;;;;;4.15;3.17;;;4.50;72.20;;;;;;5028850;28;20039;-90
2021/03/20 07:06:56;;;;;;;3.70;3.10;;;4.50;72.40;;;;;;5030155;28;20029;-89
2021/03/20 07:09:22;;;;;;;4.35;2.95;;;4.50;72.40;;;;;;5037260;28;20294;-90
2021/03/20 07:12:03;;;;;;;4.10;3.03;;;4.50;72.30;;;;;;5052326;28;20052;-89
2021/03/20 07:14:43;;;;;;;3.90;2.65;;;4.50;72.40;;;;;;5073018;28;20069;-89
2021/03/20 07:17:23;;;;;;;4.03;3.38;;;4.50;72.40;;;;;;5073944;28;20031;-90
2021/03/20 07:19:53;;;;;;;4.22;2.95;;;4.50;72.40;;;;;;5048402;28;20024;-90
2021/03/20 07:22:36;;;;;;;3.72;2.78;;;4.50;72.40;;;;;;5059588;28;20094;-89
2021/03/20 07:25:22;;;;;;;4.35;3.20;;;4.50;72.50;;;;;;5064807;28;20102;-89
2021/03/20 07:27:49;;;;;;;4.18;3.30;;;4.50;72.50;;;;;;5072401;28;20020;-91
2021/03/20 07:30:36;;;;;;;3.88;2.80;;;4.50;72.40;;;;;;5053776;28;20064;-89
2021/03/20 07:33:23;;;;;;;3.90;3.03;;;4.40;72.50;;;;;;5055779;28;20051;-91
2021/03/20 07:35:48;;;;;;;4.22;3.03;;;4.50;72.60;;;;;;5047555;28;20017;-92
2021/03/20 07:38:22;;;;;;;4.60;3.20;;;4.50;72.40;;;;;;5036406;28;20039;-91
2021/03/20 07:40:49;;;;;;;4.47;3.42;;;4.50;72.50;;;;;;5072346;28;20054;-90
2021/03/20 07:43:21;;;;;;;4.88;3.30;;;4.40;72.50;;;;;;5074984;28;20032;-89
2021/03/20 07:45:49;;;;;;;3.75;3.15;;;4.50;72.50;;;;;;5059751;28;20477;-90
2021/03/20 07:48:21;;;;;;;5.65;3.38;;;4.40;72.50;;;;;;5058997;28;20059;-90
2021/03/20 07:50:59;;;;;;;3.25;2.88;;;4.50;72.60;;;;;;5073282;28;20068;-90
2021/03/20 07:53:26;;;;;;;4.10;3.20;;;4.50;72.50;;;;;;5067985;28;20032;-89
2021/03/20 07:55:56;;;;;;;3.83;2.88;;;4.50;72.50;;;;;;5051528;28;20033;-88
2021/03/20 07:58:45;;;;;;;3.70;3.15;;;4.50;72.60;;;;;;5072584;28;20078;-89
2021/03/20 08:01:19;;;;;;;4.32;3.17;;;4.50;72.60;;;;;;5066784;28;20032;-88
2021/03/20 08:04:09;;;;;;;4.88;3.50;;;4.40;72.60;;;;;;5039035;28;20377;-86
2021/03/20 08:06:35;;;;;;;4.07;2.80;;;4.50;72.60;;;;;;5071597;28;20041;-86
2021/03/20 08:09:22;;;;;;;4.30;3.20;;;4.50;72.50;;;;;;5072002;28;20052;-83
2021/03/20 08:12:10;;;;;;;3.97;2.95;;;4.50;72.70;;;;;;5039972;28;20087;-80
2021/03/20 08:14:59;;;;;;;3.72;2.67;;;4.40;72.60;;;;;;5065381;28;20025;-83
2021/03/20 08:17:26;;;;;;;4.47;2.90;;;4.50;72.60;;;;;;5050978;28;20031;-85
2021/03/20 08:19:51;;;;;;;4.13;3.00;;;4.50;72.60;;;;;;5060360;28;20040;-81
2021/03/20 08:22:42;;;;;;;3.83;2.70;;;4.50;72.60;;;;;;5072090;28;20116;-84
2021/03/20 08:25:26;;;;;;;3.10;2.47;;;4.50;72.80;;;;;;5062029;28;20060;-83
2021/03/20 08:28:10;;;;;;;3.88;3.00;;;4.50;72.70;;;;;;5058283;28;20029;-83
2021/03/20 08:31:12;;;;;;;3.20;2.50;;;4.50;72.60;;;;;;5045851;28;20040;-81
2021/03/20 08:34:10;;;;;;;3.83;3.20;;;4.50;72.70;;;;;;5027740;28;20197;-81
2021/03/20 08:36:56;;;;;;;3.25;2.90;;;4.50;72.70;;;;;;5057154;28;20469;-81
2021/03/20 08:39:41;;;;;;;4.30;2.78;;;4.60;72.70;;;;;;5062329;28;20033;-83
2021/03/20 08:42:28;;;;;;;3.45;2.78;;;4.60;72.70;;;;;;5068583;28;20450;-82
2021/03/20 08:45:22;;;;;;;4.43;3.08;;;4.60;72.80;;;;;;5057677;28;20060;-84
2021/03/20 08:47:56;;;;;;;4.40;2.97;;;4.60;72.80;;;;;;5061537;28;20119;-81
2021/03/20 08:50:40;;;;;;;3.63;2.60;;;4.70;72.70;;;;;;5058225;28;20040;-84
2021/03/20 08:53:37;;;;;;;3.90;3.00;;;4.70;72.80;;;;;;5060309;28;20028;-82
2021/03/20 08:56:14;;;;;;;4.47;3.00;;;4.70;72.90;;;;;;4995624;28;20402;-85
2021/03/20 08:58:52;;;;;;;3.80;2.78;;;4.70;72.70;;;;;;5057402;28;20457;-83
2021/03/20 09:01:34;;;;;;;4.60;3.05;;;4.80;72.80;;;;;;5043022;28;20040;-85
2021/03/20 09:04:03;;;;;;;3.80;2.78;;;4.80;72.80;;;;;;5039237;28;20680;-87
2021/03/20 09:06:34;;;;;;;4.57;3.10;;;4.80;72.70;;;;;;5038236;28;20112;-82
2021/03/20 09:09:20;;;;;;;4.45;3.33;;;4.90;72.80;;;;;;5069541;28;20064;-82
2021/03/20 09:11:45;;;;;;;;;;;4.90;72.70;;;;;;5047770;28;20052;-83
2021/03/20 09:14:23;;;;;;;3.80;2.72;;;4.90;72.60;;;;;;5067746;28;19908;-84
2021/03/20 09:16:55;;;;;;;3.33;2.85;;;5.00;72.50;;;;;;5068163;28;20680;-85
2021/03/20 09:19:38;;;;;;;3.63;3.00;;;5.00;72.60;;;;;;5063462;28;20108;-84
2021/03/20 09:22:09;;;;;;;4.38;2.90;;;5.10;72.70;;;;;;5063522;28;20022;-83
2021/03/20 09:24:40;;;;;;;3.75;2.85;;;5.10;72.70;;;;;;5042880;28;20381;-84
2021/03/20 09:27:06;;;;;;;5.25;3.20;;;5.20;72.70;;;;;;5066974;28;20024;-85
2021/03/20 09:29:35;;;;;;;4.07;3.08;;;5.20;72.70;;;;;;5054369;28;20032;-85
2021/03/20 09:32:15;;;;;;;4.50;2.90;;;5.30;72.80;;;;;;5048550;28;20510;-84
2021/03/20 09:34:49;;;;;;;3.58;2.78;;;5.30;72.80;;;;;;5034485;28;20115;-86
2021/03/20 09:37:18;;;;;;;2.92;2.63;;;5.40;72.70;;;;;;5074690;28;20052;-84
2021/03/20 09:39:50;;;;;;;3.55;2.88;;;5.40;72.70;;;;;;5069089;28;20032;-84
2021/03/20 09:42:25;;;;;;;2.90;2.45;;;5.50;72.60;;;;;;5068893;28;20100;-84
2021/03/20 09:45:24;;;;;;;;;;;5.60;72.70;;;;;;5068646;28;20028;-85
2021/03/20 09:47:52;;;;;;;3.72;2.65;;;5.60;72.50;;;;;;5062580;28;19962;-85
2021/03/20 09:50:17;;;;;;;3.38;2.58;;;5.70;72.30;;;;;;5074570;28;20032;-84
2021/03/20 09:52:50;;;;;;;3.22;2.63;;;5.70;72.40;;;;;;5073607;28;20323;-84
2021/03/20 09:55:31;;;;;;;3.03;2.42;;;5.80;72.50;;;;;;5057998;28;20081;-85
2021/03/20 09:57:58;;;;;;;3.90;2.83;;;5.90;72.60;;;;;;5072218;28;20024;-85
2021/03/20 10:00:47;;;;;;;4.05;2.80;;;5.90;72.40;;;;;;5064042;28;20033;-85
2021/03/20 10:03:35;;;;;;;4.40;2.70;;;6.00;72.50;;;;;;5074209;28;20025;-85
2021/03/20 10:06:17;;;;;;;3.45;2.53;;;6.10;72.40;;;;;;5074899;28;20035;-85
2021/03/20 10:09:22;;;;;;;3.50;2.78;;;6.20;72.50;;;;;;5044475;28;20505;-86
2021/03/20 10:11:54;;;;;;;3.20;2.47;;;6.30;72.50;;;;;;4988269;28;20156;-86
2021/03/20 10:14:31;;;;;;;3.88;2.72;;;6.40;72.30;;;;;;4974781;28;20045;-85
2021/03/20 10:17:22;;;;;;;3.03;2.42;;;6.50;72.40;;;;;;5031743;28;20041;-85
2021/03/20 10:19:52;;;;;;;3.45;2.70;;;6.60;72.50;;;;;;5039379;28;20037;-85
2021/03/20 10:22:31;;;;;;;3.33;2.72;;;6.70;72.30;;;;;;5067245;28;20029;-85
2021/03/20 10:24:57;;;;;;;3.28;2.45;;;6.80;72.40;;;;;;5062203;28;20028;-84
2021/03/20 10:27:32;;;;;;;3.85;2.80;;;6.90;72.30;;;;;;5061931;28;20020;-84
2021/03/20 10:30:17;;;;;;;;;;;7.00;72.50;;;;;;5074494;28;20041;-85
2021/03/20 10:33:15;;;;;;;3.35;2.65;;;7.10;72.20;;;;;;5053734;28;19912;-84
2021/03/20 10:35:41;;;;;;;3.10;2.33;;;7.20;72.20;;;;;;5001736;28;20037;-84
2021/03/20 10:38:14;;;;;;;3.42;2.42;;;7.30;72.10;;;;;;5042362;28;20033;-85
2021/03/20 10:40:40;;;;;;;3.22;2.70;;;7.40;72.30;;;;;;5073900;28;20036;-85
2021/03/20 10:43:05;;;;;;;3.72;2.85;;;7.50;72.30;;;;;;5056309;28;20047;-85
2021/03/20 10:45:34;;;;;;;3.35;2.65;;;7.60;72.30;;;;;;5024182;28;20025;-85
2021/03/20 10:48:03;;;;;;;3.22;2.50;;;7.70;72.30;;;;;;5055087;28;20130;-84
2021/03/20 10:50:36;;;;;;;4.32;2.78;;;7.80;72.30;;;;;;5064201;28;20061;-85
2021/03/20 10:53:10;;;;;;;2.83;2.35;;;7.90;72.30;;;;;;5040842;28;20461;-84
2021/03/20 10:55:42;;;;;;;3.33;2.58;;;8.00;72.30;;;;;;5073129;28;20384;-84
2021/03/20 10:58:12;;;;;;;4.07;2.58;;;8.10;72.30;;;;;;5062242;28;20070;-84
2021/03/20 11:00:44;;;;;;;3.22;2.40;;;8.20;72.20;;;;;;5073774;28;20033;-84
2021/03/20 11:03:28;;;;;;;3.25;2.58;;;8.30;72.20;;;;;;5066273;28;20031;-86
2021/03/20 11:05:54;;;;;;;3.55;2.65;;;8.40;72.30;;;;;;5072302;28;20029;-87
2021/03/20 11:08:20;;;;;;;3.63;2.75;;;8.50;72.00;;;;;;5056734;28;20043;-87
2021/03/20 11:10:49;;;;;;;3.33;2.65;;;8.60;72.10;;;;;;5066188;28;20063;-85
2021/03/20 11:13:15;;;;;;;3.00;2.33;;;8.70;72.10;;;;;;5055677;28;20029;-82
2021/03/20 11:15:43;;;;;;;2.90;2.33;;;8.80;72.10;;;;;;5051777;28;20535;-83
2021/03/20 11:18:16;;;;;;;3.40;2.65;;;8.90;72.20;;;;;;5053541;28;20025;-89
2021/03/20 11:20:44;;;;;;;3.78;2.70;;;9.00;72.20;;;;;;5046535;28;20389;-82
2021/03/20 11:23:29;;;;;;;3.90;2.88;;;9.10;72.10;;;;;;5067060;28;20107;-84
2021/03/20 11:25:55;;;;;;;3.58;2.75;;;9.20;72.20;;;;;;5061800;28;20107;-84
2021/03/20 11:28:34;;;;;;;3.13;2.72;;;9.30;72.00;;;;;;5072641;28;20025;-85
2021/03/20 11:31:02;;;;;;;3.65;2.90;;;9.40;72.10;;;;;;5070676;28;20385;-87
2021/03/20 11:33:31;;;;;;;3.30;2.65;;;9.40;71.90;;;;;;5043570;28;20025;-87
2021/03/20 11:36:00;;;;;;;2.70;2.28;;;9.50;71.90;;;;;;5070402;28;20142;-87
2021/03/20 11:38:28;;;;;;;3.30;2.50;;;9.60;72.00;;;;;;5072767;28;20090;-87
2021/03/20 11:41:03;;;;;;;3.17;2.50;;;9.70;71.90;;;;;;5042382;28;20071;-87
2021/03/20 11:43:44;;;;;;;3.03;2.25;;;9.80;72.00;;;;;;5048148;28;20033;-87
2021/03/20 11:46:21;;;;;;;3.38;2.70;;;9.80;72.00;;;;;;5052358;28;20028;-87
2021/03/20 11:48:57;;;;;;;3.72;2.65;;;9.90;72.00;;;;;;5046270;28;20112;-88
2021/03/20 11:51:37;;;;;;;3.40;2.67;;;10.00;72.10;;;;;;5054058;28;20016;-86
2021/03/20 11:54:41;;;;;;;3.28;2.60;;;10.10;72.20;;;;;;5074130;28;20499;-87
2021/03/20 11:57:28;;;;;;;3.60;2.80;;;10.10;72.30;;;;;;4976362;28;20027;-87
2021/03/20 11:59:54;;;;;;;3.42;2.53;;;10.20;72.40;;;;;;4992596;28;20149;-87
2021/03/20 12:02:25;;;;;;;3.25;2.63;;;10.30;72.30;;;;;;5046759;28;20131;-86
2021/03/20 12:05:10;;;;;;;3.58;2.80;;;10.30;72.40;;;;;;5055826;28;20058;-86
2021/03/20 12:07:36;;;;;;;3.63;2.60;;;10.40;72.60;;;;;;5055878;28;20028;-87
2021/03/20 12:10:35;;;;;;;4.07;2.90;;;10.50;72.50;;;;;;5055484;28;20936;-87
2021/03/20 12:13:00;;;;;;;3.45;2.63;;;10.50;72.70;;;;;;5018001;28;20052;-87
2021/03/20 12:15:29;;;;;;;3.75;2.95;;;10.60;72.50;;;;;;5052818;28;20033;-87
2021/03/20 12:17:57;;;;;;;3.55;2.90;;;10.60;72.50;;;;;;5065326;28;20082;-86
2021/03/20 12:20:43;;;;;;;3.72;2.53;;;10.70;72.60;;;;;;5071784;28;20033;-86
2021/03/20 12:23:24;;;;;;;3.65;2.50;;;10.70;72.70;;;;;;5072212;28;20024;-87
2021/03/20 12:25:58;;;;;;;2.83;2.53;;;10.80;72.70;;;;;;5035989;28;20036;-86
2021/03/20 12:28:36;;;;;;;3.78;2.88;;;10.80;72.80;;;;;;5071295;28;20154;-86
2021/03/20 12:31:17;;;;;;;3.75;2.78;;;10.90;72.90;;;;;;5073123;28;20043;-87
2021/03/20 12:33:45;;;;;;;3.33;2.60;;;10.90;72.70;;;;;;5073360;28;20087;-87
2021/03/20 12:36:32;;;;;;;3.97;3.00;;;11.00;72.70;;;;;;5072335;28;20012;-86
2021/03/20 12:38:58;;;;;;;3.95;2.90;;;11.00;72.80;;;;;;5060639;28;20040;-86
2021/03/20 12:41:27;;;;;;;4.75;2.80;;;11.10;72.60;;;;;;5055140;28;20021;-87
2021/03/20 12:44:08;;;;;;;4.13;2.83;;;11.10;72.60;;;;;;5072636;28;20037;-87
2021/03/20 12:46:35;;;;;;;3.58;2.60;;;11.10;72.70;;;;;;5057920;28;20029;-86
2021/03/20 12:49:01;;;;;;;3.33;2.55;;;11.20;72.70;;;;;;5052491;28;20512;-86
2021/03/20 12:51:27;;;;;;;3.45;2.55;;;11.20;72.60;;;;;;5070139;28;20031;-87
2021/03/20 12:53:57;;;;;;;3.22;2.58;;;11.30;72.80;;;;;;5055529;28;20534;-87
2021/03/20 12:56:23;;;;;;;3.42;2.63;;;11.30;72.70;;;;;;5055260;28;20035;-86
2021/03/20 12:58:48;;;;;;;4.10;3.00;;;11.40;72.70;;;;;;5039489;28;20020;-86
2021/03/20 13:01:14;;;;;;;4.13;2.83;;;11.40;72.60;;;;;;5036084;28;20047;-86
2021/03/20 13:03:40;;;;;;;4.45;2.80;;;11.40;72.60;;;;;;5071845;28;20016;-85
2021/03/20 13:06:06;;;;;;;3.60;2.80;;;11.50;72.70;;;;;;5055147;28;20029;-87
2021/03/20 13:08:38;;;;;;;4.00;2.75;;;11.50;72.60;;;;;;5055205;28;20024;-86
2021/03/20 13:11:06;;;;;;;3.65;2.80;;;11.60;72.70;;;;;;5058232;28;20049;-87
2021/03/20 13:13:32;;;;;;;3.55;2.80;;;11.60;72.60;;;;;;5056144;28;20033;-84
2021/03/20 13:15:58;;;;;;;3.22;2.58;;;11.60;72.50;;;;;;5049582;28;20111;-86
2021/03/20 13:18:24;;;;;;;3.53;2.65;;;11.60;72.50;;;;;;5075764;28;20108;-86
2021/03/20 13:20:51;;;;;;;3.90;2.35;;;11.70;72.50;;;;;;5075992;28;20028;-86
2021/03/20 13:23:18;;;;;;;3.45;2.72;;;11.70;72.50;;;;;;5076804;28;20056;-86
2021/03/20 13:25:45;;;;;;;3.28;2.47;;;11.80;72.50;;;;;;5059043;28;20067;-86
2021/03/20 13:28:13;;;;;;;3.63;2.90;;;11.80;72.40;;;;;;5059051;28;20063;-86
2021/03/20 13:30:44;;;;;;;3.88;2.60;;;11.80;72.40;;;;;;5075913;28;20043;-85
2021/03/20 13:33:10;;;;;;;3.50;2.65;;;11.90;72.50;;;;;;5075486;28;20033;-86
2021/03/20 13:35:39;;;;;;;3.15;2.45;;;11.90;72.50;;;;;;5055387;28;20025;-85
2021/03/20 13:38:05;;;;;;;5.03;2.83;;;11.90;72.40;;;;;;5045002;28;20020;-85